Time;durP1;ratioP1;P1;durP2;ratioP2;P2;SDS_P1;SDS_P2;PMS_P1;PMS_P2;Temp;Humidity;BMP_temperature;BMP_pressure;BME280_temperature;BME280_humidity;BME280_pressure;Samples;Min_cycle;Max_cycle;Signal;HPM_P1;HPM_P2
2024/01/20 00:00:00;;;;;;;0.90;0.90;;;0.80;99.90;;;;;;5066476;28;20089;-84
2024/01/20 00:02:26;;;;;;;0.75;0.75;;;0.80;99.90;;;;;;5037432;28;20670;-83
2024/01/20 00:04:52;;;;;;;0.60;0.60;;;0.90;99.90;;;;;;5044671;28;20068;-85
2024/01/20 00:07:19;;;;;;;0.80;0.80;;;1.20;99.90;;;;;;5047005;28;20127;-84
2024/01/20 00:09:44;;;;;;;0.60;0.60;;;1.20;99.90;;;;;;5053237;28;20041;-85
2024/01/20 00:12:10;;;;;;;1.15;1.15;;;0.90;99.90;;;;;;5072092;28;20067;-83
2024/01/20 00:14:36;;;;;;;0.70;0.70;;;0.90;99.90;;;;;;5059626;28;20056;-82
2024/01/20 00:17:02;;;;;;;0.60;0.60;;;1.40;99.90;;;;;;5062364;28;20076;-82
2024/01/20 00:19:28;;;;;;;0.70;0.70;;;0.90;99.90;;;;;;5047700;28;20063;-83
2024/01/20 00:21:53;;;;;;;0.80;0.80;;;0.90;99.90;;;;;;5044597;28;20123;-83
2024/01/20 00:24:22;;;;;;;0.70;0.70;;;0.80;99.90;;;;;;5059588;28;20036;-82
2024/01/20 00:26:47;;;;;;;0.70;0.70;;;0.80;99.90;;;;;;5040964;28;20389;-83
2024/01/20 00:29:16;;;;;;;1.55;1.50;;;0.70;99.90;;;;;;5058721;28;20607;-83
2024/01/20 00:31:41;;;;;;;0.80;0.80;;;0.70;99.90;;;;;;5058750;28;20613;-82
2024/01/20 00:34:08;;;;;;;0.90;0.90;;;0.70;99.90;;;;;;5031502;28;20158;-83
2024/01/20 00:36:34;;;;;;;0.80;0.80;;;0.30;99.90;;;;;;5028400;28;20072;-82
2024/01/20 00:39:00;;;;;;;0.88;0.88;;;0.70;99.90;;;;;;5059320;28;20363;-82
2024/01/20 00:41:26;;;;;;;0.65;0.65;;;0.70;99.90;;;;;;5043930;28;20102;-84
2024/01/20 00:43:52;;;;;;;1.63;1.48;;;0.70;99.90;;;;;;5059191;28;20041;-82
2024/01/20 00:46:18;;;;;;;0.98;0.98;;;0.60;99.90;;;;;;5008163;28;20055;-83
2024/01/20 00:48:43;;;;;;;0.80;0.80;;;0.60;99.90;;;;;;5063321;28;20466;-81
2024/01/20 00:51:09;;;;;;;0.90;0.90;;;0.60;99.90;;;;;;5047210;28;20056;-82
2024/01/20 00:53:35;;;;;;;1.25;1.15;;;0.60;99.90;;;;;;5057073;28;20513;-82
2024/01/20 00:56:01;;;;;;;0.70;0.70;;;0.60;99.90;;;;;;5061106;28;20044;-81
2024/01/20 00:58:27;;;;;;;0.77;0.77;;;0.60;99.90;;;;;;5061501;28;20053;-82
2024/01/20 01:00:52;;;;;;;0.65;0.65;;;0.60;99.90;;;;;;5047390;28;20056;-83
2024/01/20 01:03:18;;;;;;;1.10;1.08;;;0.50;99.90;;;;;;5042341;28;20067;-81
2024/01/20 01:05:44;;;;;;;0.57;0.57;;;0.50;99.90;;;;;;5029059;28;20374;-84
2024/01/20 01:08:10;;;;;;;0.98;0.98;;;0.50;99.90;;;;;;5050015;28;20059;-82
2024/01/20 01:10:35;;;;;;;0.85;0.85;;;0.60;99.90;;;;;;5045226;28;20051;-83
2024/01/20 01:13:01;;;;;;;1.23;1.13;;;0.70;99.90;;;;;;5044265;28;20055;-81
2024/01/20 01:15:29;;;;;;;1.15;0.98;;;0.50;99.90;;;;;;5045337;28;20044;-84
2024/01/20 01:17:54;;;;;;;0.75;0.75;;;0.50;99.90;;;;;;5044464;28;20049;-81
2024/01/20 01:20:20;;;;;;;0.70;0.70;;;0.50;99.90;;;;;;5044008;28;20052;-83
2024/01/20 01:22:46;;;;;;;0.60;0.60;;;0.40;99.90;;;;;;5062413;28;20044;-80
2024/01/20 01:25:12;;;;;;;0.70;0.70;;;0.40;99.90;;;;;;5058965;28;20127;-83
2024/01/20 01:27:38;;;;;;;0.85;0.85;;;0.40;99.90;;;;;;5044624;28;20123;-82
2024/01/20 01:30:04;;;;;;;0.70;0.70;;;0.50;99.90;;;;;;5032138;28;20397;-83
2024/01/20 01:32:30;;;;;;;0.90;0.90;;;0.60;99.90;;;;;;5045678;28;20063;-83
2024/01/20 01:34:55;;;;;;;0.70;0.70;;;1.00;99.90;;;;;;5040808;28;20032;-82
2024/01/20 01:37:21;;;;;;;1.50;1.42;;;0.60;99.90;;;;;;5045283;28;20718;-82
2024/01/20 01:39:48;;;;;;;3.08;2.88;;;0.70;99.90;;;;;;5042528;28;20056;-83
2024/01/20 01:42:14;;;;;;;0.77;0.77;;;0.60;99.90;;;;;;5057170;28;20052;-81
2024/01/20 01:44:40;;;;;;;0.65;0.65;;;0.70;99.90;;;;;;5062432;28;20064;-82
2024/01/20 01:47:06;;;;;;;0.90;0.90;;;0.70;99.90;;;;;;5032878;28;20136;-83
2024/01/20 01:49:31;;;;;;;0.70;0.70;;;0.80;99.90;;;;;;5063758;28;20065;-83
2024/01/20 01:51:57;;;;;;;0.80;0.80;;;0.80;99.90;;;;;;5024974;28;21702;-84
2024/01/20 01:54:24;;;;;;;4.53;1.83;;;0.80;99.90;;;;;;5069777;28;20393;-81
2024/01/20 01:56:52;;;;;;;0.80;0.80;;;0.90;99.90;;;;;;5065707;28;20397;-82
2024/01/20 01:59:19;;;;;;;0.90;0.90;;;1.00;99.90;;;;;;5047556;28;20219;-81
2024/01/20 02:01:45;;;;;;;1.55;1.45;;;0.90;99.90;;;;;;5048502;28;20044;-83
2024/01/20 02:04:11;;;;;;;0.80;0.80;;;0.90;99.90;;;;;;5046535;28;20102;-84
2024/01/20 02:06:36;;;;;;;1.20;1.20;;;0.90;99.90;;;;;;5061257;28;20492;-83
2024/01/20 02:09:03;;;;;;;0.80;0.80;;;1.10;99.90;;;;;;5029868;28;20065;-83
2024/01/20 02:11:29;;;;;;;0.70;0.70;;;1.10;99.90;;;;;;5048789;28;20036;-85
2024/01/20 02:13:54;;;;;;;;;;;1.10;99.90;;;;;;5068701;28;20044;-83
2024/01/20 02:16:20;;;;;;;1.77;1.67;;;1.10;99.90;;;;;;5059205;28;19920;-84
2024/01/20 02:18:46;;;;;;;0.80;0.80;;;1.10;99.90;;;;;;5050434;28;20106;-83
2024/01/20 02:21:12;;;;;;;0.70;0.70;;;1.80;99.90;;;;;;5048200;28;20036;-83
2024/01/20 02:23:48;;;;;;;0.85;0.85;;;1.20;99.90;;;;;;5036015;28;20199;-83
2024/01/20 02:26:15;;;;;;;3.63;3.33;;;1.10;99.90;;;;;;5048343;28;20564;-81
2024/01/20 02:28:41;;;;;;;1.00;1.00;;;1.00;99.90;;;;;;5038736;28;20039;-83
2024/01/20 02:31:07;;;;;;;1.00;1.00;;;1.00;99.90;;;;;;5029541;28;20048;-83
2024/01/20 02:33:32;;;;;;;0.63;0.63;;;1.00;99.90;;;;;;5029230;28;20350;-83
2024/01/20 02:35:58;;;;;;;0.73;0.73;;;1.00;99.90;;;;;;5048926;28;20339;-83
2024/01/20 02:38:24;;;;;;;0.90;0.90;;;0.90;99.90;;;;;;5057928;28;20057;-83
2024/01/20 02:40:50;;;;;;;1.65;1.55;;;0.90;99.90;;;;;;5045471;28;20035;-82
2024/01/20 02:43:15;;;;;;;0.77;0.77;;;0.90;99.90;;;;;;5047084;28;20041;-82
2024/01/20 02:45:41;;;;;;;0.90;0.90;;;0.80;99.90;;;;;;5061691;28;20419;-82
2024/01/20 02:48:09;;;;;;;0.95;0.95;;;1.00;99.90;;;;;;5033323;28;20044;-83
2024/01/20 02:50:35;;;;;;;0.70;0.70;;;1.50;99.90;;;;;;5030413;28;20164;-82
2024/01/20 02:53:00;;;;;;;0.82;0.82;;;1.10;99.90;;;;;;5037370;28;20127;-84
2024/01/20 02:55:26;;;;;;;0.88;0.88;;;0.70;99.90;;;;;;5037037;28;20063;-83
2024/01/20 02:57:52;;;;;;;1.00;1.00;;;0.60;99.90;;;;;;5051553;28;20037;-81
2024/01/20 03:00:18;;;;;;;0.80;0.80;;;0.60;99.90;;;;;;5042563;28;20037;-82
2024/01/20 03:02:43;;;;;;;0.70;0.70;;;0.60;99.90;;;;;;5060001;28;20162;-83
2024/01/20 03:05:11;;;;;;;0.80;0.80;;;0.60;99.90;;;;;;5047513;28;20044;-83
2024/01/20 03:07:36;;;;;;;0.70;0.70;;;0.60;99.90;;;;;;5049455;28;20032;-82
2024/01/20 03:10:03;;;;;;;0.80;0.80;;;0.80;99.90;;;;;;5034075;28;20340;-82
2024/01/20 03:12:28;;;;;;;;;;;0.60;99.90;;;;;;5048102;28;20135;-82
2024/01/20 03:14:56;;;;;;;0.70;0.70;;;0.60;99.90;;;;;;5042628;28;20060;-82
2024/01/20 03:17:22;;;;;;;0.73;0.73;;;0.60;99.90;;;;;;5044767;28;20047;-82
2024/01/20 03:19:47;;;;;;;0.80;0.80;;;0.50;99.90;;;;;;5060425;28;20044;-82
2024/01/20 03:22:13;;;;;;;0.73;0.73;;;0.50;99.90;;;;;;5047160;28;20706;-83
2024/01/20 03:24:39;;;;;;;0.80;0.80;;;0.50;99.90;;;;;;5044764;28;20119;-81
2024/01/20 03:27:04;;;;;;;1.20;1.05;;;0.50;99.90;;;;;;5061739;28;20511;-83
2024/01/20 03:29:30;;;;;;;1.02;1.02;;;0.50;99.90;;;;;;5056056;28;20044;-83
2024/01/20 03:31:57;;;;;;;0.80;0.80;;;0.90;99.90;;;;;;5043739;28;20059;-83
2024/01/20 03:34:22;;;;;;;1.17;1.10;;;0.60;99.90;;;;;;5014559;28;20044;-81
2024/01/20 03:36:48;;;;;;;1.08;1.08;;;0.50;99.90;;;;;;5040962;28;20154;-83
2024/01/20 03:39:14;;;;;;;1.00;1.00;;;0.50;99.90;;;;;;5045454;28;20032;-83
2024/01/20 03:41:40;;;;;;;1.10;1.10;;;0.50;99.90;;;;;;5061288;28;20198;-82
2024/01/20 03:44:05;;;;;;;1.42;1.35;;;0.60;99.90;;;;;;5049042;28;20045;-83
2024/01/20 03:46:31;;;;;;;0.80;0.80;;;0.50;99.90;;;;;;5014304;28;20595;-83
2024/01/20 03:48:57;;;;;;;0.70;0.70;;;0.40;99.90;;;;;;5035981;28;20044;-84
2024/01/20 03:51:26;;;;;;;;;;;0.40;99.90;;;;;;5063474;28;20170;-81
2024/01/20 03:53:53;;;;;;;0.90;0.90;;;0.40;99.90;;;;;;5072213;28;19927;-83
2024/01/20 03:56:18;;;;;;;0.80;0.80;;;0.30;99.90;;;;;;5033203;28;20075;-82
2024/01/20 03:58:44;;;;;;;0.90;0.90;;;0.30;99.90;;;;;;5029058;28;20052;-82
2024/01/20 04:01:10;;;;;;;0.80;0.80;;;0.30;99.90;;;;;;5046125;28;20490;-83
2024/01/20 04:03:36;;;;;;;3.50;2.28;;;0.40;99.90;;;;;;5050810;28;20048;-84
2024/01/20 04:06:03;;;;;;;0.70;0.70;;;0.40;99.90;;;;;;5035523;28;20056;-83
2024/01/20 04:08:29;;;;;;;2.30;2.17;;;0.30;99.90;;;;;;5034414;28;20121;-83
2024/01/20 04:10:55;;;;;;;1.23;1.10;;;0.30;99.90;;;;;;5059727;28;20049;-84
2024/01/20 04:13:20;;;;;;;0.77;0.77;;;0.30;99.90;;;;;;5045455;28;20132;-82
2024/01/20 04:15:46;;;;;;;1.13;1.08;;;0.50;99.90;;;;;;5016838;28;20079;-83
2024/01/20 04:18:12;;;;;;;1.55;1.45;;;0.30;99.90;;;;;;5044328;28;20090;-83
2024/01/20 04:20:37;;;;;;;0.75;0.75;;;0.20;99.90;;;;;;5045900;28;20032;-82
2024/01/20 04:23:03;;;;;;;1.38;0.95;;;0.20;99.90;;;;;;5047630;28;20393;-83
2024/01/20 04:25:29;;;;;;;4.25;3.95;;;0.10;99.90;;;;;;5048523;28;20048;-82
2024/01/20 04:27:55;;;;;;;0.95;0.95;;;0.10;99.90;;;;;;5015580;28;20041;-82
2024/01/20 04:30:20;;;;;;;3.28;3.17;;;0.50;99.90;;;;;;5017532;28;20101;-83
2024/01/20 04:32:46;;;;;;;0.80;0.80;;;0.20;99.90;;;;;;5022539;28;20068;-83
2024/01/20 04:35:12;;;;;;;1.02;1.02;;;0.10;99.90;;;;;;5034514;28;20093;-82
2024/01/20 04:37:39;;;;;;;1.08;1.08;;;0.10;99.90;;;;;;5057615;28;20075;-82
2024/01/20 04:40:05;;;;;;;2.05;1.77;;;1.60;99.90;;;;;;5042398;28;20040;-80
2024/01/20 04:42:31;;;;;;;1.30;1.20;;;0.10;99.90;;;;;;5066555;28;20036;-83
2024/01/20 04:44:57;;;;;;;1.08;1.08;;;0.10;99.90;;;;;;5062723;28;20444;-82
2024/01/20 04:47:23;;;;;;;0.98;0.98;;;0.10;99.90;;;;;;5032308;28;20693;-83
2024/01/20 04:49:51;;;;;;;0.90;0.90;;;0.10;99.90;;;;;;5064295;28;20048;-84
2024/01/20 04:52:18;;;;;;;1.00;1.00;;;0.70;99.90;;;;;;5058982;28;20063;-83
2024/01/20 04:54:44;;;;;;;0.70;0.70;;;0.10;99.90;;;;;;5064008;28;20127;-83
2024/01/20 04:57:09;;;;;;;0.80;0.80;;;0.20;99.90;;;;;;5044052;28;20173;-84
2024/01/20 04:59:35;;;;;;;0.80;0.80;;;0.10;99.90;;;;;;5044710;28;20214;-81
2024/01/20 05:02:01;;;;;;;0.90;0.90;;;0.10;99.90;;;;;;5063827;28;20124;-81
2024/01/20 05:04:26;;;;;;;0.80;0.80;;;0.10;99.90;;;;;;5041915;28;20043;-82
2024/01/20 05:06:52;;;;;;;1.23;1.17;;;0.00;99.90;;;;;;5058077;28;20032;-83
2024/01/20 05:09:18;;;;;;;1.25;1.20;;;0.00;99.90;;;;;;5031219;28;20438;-84
2024/01/20 05:11:43;;;;;;;0.70;0.70;;;0.00;99.90;;;;;;5032908;28;20036;-83
2024/01/20 05:14:09;;;;;;;7.95;7.38;;;0.00;99.90;;;;;;5058263;28;20071;-82
2024/01/20 05:16:35;;;;;;;0.95;0.95;;;0.00;99.90;;;;;;5031455;28;20051;-81
2024/01/20 05:19:01;;;;;;;0.70;0.70;;;-0.10;99.90;;;;;;5055124;28;20047;-81
2024/01/20 05:21:27;;;;;;;1.10;1.10;;;-0.20;99.90;;;;;;5063494;28;20033;-80
2024/01/20 05:23:52;;;;;;;0.88;0.88;;;2.00;99.90;;;;;;5032239;28;20481;-81
2024/01/20 05:26:18;;;;;;;;;;;-0.30;99.90;;;;;;5064080;28;20056;-81
2024/01/20 05:28:44;;;;;;;0.82;0.82;;;-0.30;99.90;;;;;;5059571;28;19916;-81
2024/01/20 05:31:10;;;;;;;6.15;2.55;;;-0.40;99.90;;;;;;5022812;28;20047;-81
2024/01/20 05:33:36;;;;;;;;;;;-0.40;99.90;;;;;;5059425;28;20072;-82
2024/01/20 05:36:02;;;;;;;2.40;2.20;;;-0.50;99.90;;;;;;5058492;28;19971;-83
2024/01/20 05:38:28;;;;;;;1.52;1.45;;;-0.40;99.90;;;;;;5049537;28;20052;-81
2024/01/20 05:40:53;;;;;;;1.80;1.70;;;-0.40;99.90;;;;;;5033505;28;20128;-83
2024/01/20 05:43:19;;;;;;;0.90;0.90;;;-0.50;99.90;;;;;;5046007;28;20037;-82
2024/01/20 05:45:45;;;;;;;2.20;2.10;;;-0.50;99.90;;;;;;5031724;28;20432;-81
2024/01/20 05:48:11;;;;;;;;;;;0.10;99.90;;;;;;5063361;28;20625;-82
2024/01/20 05:50:37;;;;;;;1.02;1.00;;;-0.60;99.90;;;;;;5041090;28;19930;-82
2024/01/20 05:53:03;;;;;;;0.75;0.75;;;-0.50;99.90;;;;;;5040871;28;20496;-82
2024/01/20 05:55:28;;;;;;;1.38;1.33;;;-0.60;99.90;;;;;;5057691;28;20072;-82
2024/01/20 05:57:54;;;;;;;0.85;0.85;;;-0.60;99.90;;;;;;5027065;28;20539;-82
2024/01/20 06:00:21;;;;;;;1.10;1.05;;;-0.60;99.90;;;;;;5056313;28;20057;-80
2024/01/20 06:02:48;;;;;;;1.63;1.55;;;-0.70;99.90;;;;;;5028843;28;20595;-80
2024/01/20 06:05:14;;;;;;;4.43;3.47;;;-0.60;99.90;;;;;;5033087;28;20443;-83
2024/01/20 06:07:39;;;;;;;1.00;1.00;;;-0.70;99.90;;;;;;5029142;28;20045;-81
2024/01/20 06:10:06;;;;;;;0.80;0.80;;;-0.70;99.90;;;;;;5041735;28;20052;-82
2024/01/20 06:12:31;;;;;;;1.05;1.05;;;-0.70;99.90;;;;;;5062601;28;20047;-81
2024/01/20 06:14:59;;;;;;;0.93;0.93;;;-0.70;99.90;;;;;;5063732;28;20036;-84
2024/01/20 06:17:26;;;;;;;0.95;0.95;;;-0.70;99.90;;;;;;5042808;28;20140;-82
2024/01/20 06:19:52;;;;;;;1.10;1.10;;;-0.70;99.90;;;;;;5041943;28;20129;-83
2024/01/20 06:22:18;;;;;;;0.82;0.82;;;-0.60;99.90;;;;;;5059689;28;20107;-82
2024/01/20 06:24:44;;;;;;;1.25;1.25;;;-0.70;99.90;;;;;;5043195;28;20154;-81
2024/01/20 06:27:10;;;;;;;1.00;1.00;;;-0.30;99.90;;;;;;5043640;28;20075;-83
2024/01/20 06:29:40;;;;;;;2.35;2.25;;;-0.70;99.90;;;;;;5013497;28;20044;-82
2024/01/20 06:32:07;;;;;;;0.80;0.80;;;-0.70;99.90;;;;;;5043333;28;20098;-82
2024/01/20 06:34:32;;;;;;;;;;;-0.80;99.90;;;;;;5060750;28;20032;-81
2024/01/20 06:36:58;;;;;;;0.82;0.82;;;-0.60;99.90;;;;;;5051284;28;19942;-80
2024/01/20 06:39:24;;;;;;;0.77;0.77;;;-0.60;99.90;;;;;;5009704;28;20041;-81
2024/01/20 06:41:50;;;;;;;0.93;0.93;;;-0.60;99.90;;;;;;5042028;28;20086;-81
2024/01/20 06:44:16;;;;;;;1.65;1.55;;;-0.70;99.90;;;;;;5044362;28;20055;-81
2024/01/20 06:46:42;;;;;;;0.90;0.90;;;-0.70;99.90;;;;;;5057291;28;20056;-82
2024/01/20 06:49:08;;;;;;;2.17;2.08;;;-0.70;99.90;;;;;;5043089;28;20040;-81
2024/01/20 06:51:34;;;;;;;1.05;1.05;;;-0.70;99.90;;;;;;5045740;28;20478;-81
2024/01/20 06:54:00;;;;;;;0.93;0.93;;;-0.70;99.90;;;;;;5061010;28;20080;-82
2024/01/20 06:56:26;;;;;;;1.63;1.52;;;-0.70;99.90;;;;;;5047739;28;20041;-81
2024/01/20 06:58:54;;;;;;;0.85;0.85;;;-0.70;99.90;;;;;;5045028;28;20052;-81
2024/01/20 07:01:20;;;;;;;0.90;0.90;;;-0.60;99.90;;;;;;5064126;28;20053;-81
2024/01/20 07:03:46;;;;;;;;;;;-0.60;99.90;;;;;;5052380;28;20041;-84
2024/01/20 07:06:13;;;;;;;1.57;1.47;;;-0.50;99.90;;;;;;5043623;28;20374;-82
2024/01/20 07:08:40;;;;;;;2.20;2.10;;;-0.60;99.90;;;;;;5041905;28;20280;-82
2024/01/20 07:11:09;;;;;;;;;;;-0.60;99.90;;;;;;5029767;28;20041;-82
2024/01/20 07:13:36;;;;;;;0.63;0.63;;;-0.70;99.90;;;;;;5045474;28;19954;-84
2024/01/20 07:16:08;;;;;;;0.85;0.85;;;-0.20;99.90;;;;;;5031087;28;20040;-82
2024/01/20 07:18:34;;;;;;;2.10;1.92;;;-0.70;99.90;;;;;;5044266;28;20029;-82
2024/01/20 07:20:59;;;;;;;1.48;1.38;;;-0.80;99.90;;;;;;5047824;28;20523;-83
2024/01/20 07:23:25;;;;;;;0.85;0.85;;;-0.80;99.90;;;;;;5063666;28;20028;-84
2024/01/20 07:25:51;;;;;;;0.80;0.80;;;-0.80;99.90;;;;;;5036736;28;20033;-84
2024/01/20 07:28:16;;;;;;;1.88;1.70;;;-0.70;99.90;;;;;;5008361;28;20127;-82
2024/01/20 07:30:43;;;;;;;2.17;2.08;;;-0.70;99.90;;;;;;5060430;28;20083;-81
2024/01/20 07:33:08;;;;;;;;;;;-0.70;99.90;;;;;;5028946;28;20036;-82
2024/01/20 07:35:35;;;;;;;1.77;1.57;;;-0.60;99.90;;;;;;5043517;28;19973;-82
2024/01/20 07:38:00;;;;;;;0.93;0.93;;;-0.10;99.90;;;;;;5049181;28;20268;-83
2024/01/20 07:40:26;;;;;;;1.00;1.00;;;-0.20;99.90;;;;;;5043166;28;20098;-84
2024/01/20 07:42:52;;;;;;;3.60;3.35;;;-0.60;99.90;;;;;;5017185;28;20036;-86
2024/01/20 07:45:18;;;;;;;2.30;1.95;;;-0.60;99.90;;;;;;5021890;28;20052;-83
2024/01/20 07:47:46;;;;;;;2.75;2.55;;;-0.60;99.90;;;;;;5061373;28;20037;-83
2024/01/20 07:50:11;;;;;;;0.90;0.90;;;-0.10;99.90;;;;;;5070946;28;20060;-83
2024/01/20 07:52:38;;;;;;;1.52;1.42;;;-0.60;99.90;;;;;;5068479;28;20048;-84
2024/01/20 07:55:05;;;;;;;4.18;3.83;;;-0.50;99.90;;;;;;5036590;28;20124;-86
2024/01/20 07:57:31;;;;;;;3.17;2.17;;;-0.40;99.90;;;;;;5056045;28;20529;-84
2024/01/20 07:59:57;;;;;;;2.00;1.90;;;-0.50;99.90;;;;;;5049799;28;20083;-86
2024/01/20 08:02:23;;;;;;;0.80;0.80;;;-0.40;99.90;;;;;;5070367;28;20044;-83
2024/01/20 08:04:49;;;;;;;1.83;1.73;;;-0.40;99.90;;;;;;5029613;28;20047;-80
2024/01/20 08:07:14;;;;;;;0.80;0.80;;;-0.10;99.90;;;;;;5068718;28;20037;-83
2024/01/20 08:09:40;;;;;;;1.25;1.25;;;-0.30;99.90;;;;;;5039403;28;20048;-83
2024/01/20 08:12:06;;;;;;;1.50;1.40;;;-0.30;99.90;;;;;;5070656;28;20046;-82
2024/01/20 08:14:32;;;;;;;0.90;0.90;;;-0.20;99.90;;;;;;5054451;28;20044;-85
2024/01/20 08:16:58;;;;;;;0.70;0.70;;;-0.20;99.90;;;;;;5071318;28;20484;-85
2024/01/20 08:19:24;;;;;;;0.88;0.88;;;-0.10;99.90;;;;;;5065343;28;20081;-84
2024/01/20 08:21:50;;;;;;;1.95;1.85;;;0.00;99.90;;;;;;5051095;28;20037;-84
2024/01/20 08:24:15;;;;;;;0.70;0.70;;;0.00;99.90;;;;;;5054277;28;20503;-84
2024/01/20 08:26:42;;;;;;;0.88;0.88;;;0.00;99.90;;;;;;5050083;28;20040;-86
2024/01/20 08:29:08;;;;;;;0.70;0.70;;;0.10;99.90;;;;;;5027191;28;20116;-88
2024/01/20 08:31:34;;;;;;;2.10;2.00;;;1.60;99.90;;;;;;5045242;28;20127;-84
2024/01/20 08:34:00;;;;;;;1.50;1.40;;;0.20;99.90;;;;;;5067969;28;20383;-87
2024/01/20 08:36:25;;;;;;;;;;;0.10;99.90;;;;;;5034361;28;20120;-85
2024/01/20 08:38:51;;;;;;;0.82;0.82;;;0.20;99.90;;;;;;5034882;28;19965;-84
2024/01/20 08:41:17;;;;;;;0.73;0.73;;;0.30;99.90;;;;;;5030191;28;20037;-84
2024/01/20 08:43:43;;;;;;;1.17;1.17;;;0.20;99.90;;;;;;5050015;28;20036;-85
2024/01/20 08:46:09;;;;;;;1.23;1.23;;;0.70;99.90;;;;;;5072170;28;20115;-85
2024/01/20 08:48:35;;;;;;;2.38;2.25;;;0.60;99.90;;;;;;5043729;28;20123;-85
2024/01/20 08:51:01;;;;;;;1.17;1.08;;;0.30;99.90;;;;;;5046586;28;20044;-84
2024/01/20 08:53:27;;;;;;;0.70;0.70;;;0.30;99.90;;;;;;5064097;28;20051;-85
2024/01/20 08:55:53;;;;;;;2.05;1.90;;;0.30;99.90;;;;;;5032384;28;20108;-86
2024/01/20 08:58:19;;;;;;;0.90;0.90;;;0.30;99.90;;;;;;5049202;28;20126;-87
2024/01/20 09:00:45;;;;;;;;;;;0.40;99.90;;;;;;5070063;28;20067;-85
2024/01/20 09:03:11;;;;;;;0.73;0.73;;;0.30;99.90;;;;;;5063442;28;19928;-85
2024/01/20 09:05:37;;;;;;;1.33;1.23;;;0.40;99.90;;;;;;5065602;28;20123;-87
2024/01/20 09:08:05;;;;;;;1.42;1.38;;;0.40;99.90;;;;;;5053295;28;20077;-86
2024/01/20 09:10:31;;;;;;;0.70;0.70;;;0.40;99.90;;;;;;5048271;28;20083;-84
2024/01/20 09:12:57;;;;;;;0.80;0.80;;;0.40;99.90;;;;;;5047806;28;20071;-85
2024/01/20 09:15:22;;;;;;;2.72;2.63;;;0.40;99.90;;;;;;5049061;28;20041;-85
2024/01/20 09:17:48;;;;;;;0.88;0.88;;;1.10;99.90;;;;;;5065197;28;20154;-85
2024/01/20 09:20:14;;;;;;;2.05;1.95;;;0.60;99.90;;;;;;5066990;28;20072;-85
2024/01/20 09:22:39;;;;;;;2.75;2.55;;;0.50;99.90;;;;;;5035145;28;20080;-86
2024/01/20 09:25:06;;;;;;;2.25;1.95;;;0.50;99.90;;;;;;5039221;28;20048;-85
2024/01/20 09:27:31;;;;;;;;;;;0.60;99.90;;;;;;5051848;28;20052;-85
2024/01/20 09:29:57;;;;;;;1.25;1.15;;;0.60;99.90;;;;;;5032146;28;20011;-85
2024/01/20 09:32:23;;;;;;;1.88;1.77;;;0.60;99.90;;;;;;5047566;28;20043;-84
2024/01/20 09:34:50;;;;;;;;;;;0.60;99.90;;;;;;5067499;28;20060;-84
2024/01/20 09:37:16;;;;;;;2.67;2.45;;;0.60;99.90;;;;;;5051347;28;19921;-86
2024/01/20 09:39:42;;;;;;;1.00;1.00;;;0.70;99.90;;;;;;5032833;28;20127;-85
2024/01/20 09:42:08;;;;;;;1.27;1.27;;;0.70;99.90;;;;;;5044942;28;20040;-85
2024/01/20 09:44:34;;;;;;;1.95;1.52;;;0.80;99.90;;;;;;5058899;28;20033;-85
2024/01/20 09:47:00;;;;;;;1.25;1.15;;;0.80;99.90;;;;;;5051947;28;20043;-86
2024/01/20 09:49:26;;;;;;;0.70;0.70;;;0.80;99.90;;;;;;5034945;28;20041;-86
2024/01/20 09:51:52;;;;;;;0.80;0.80;;;1.00;99.90;;;;;;5034830;28;20084;-85
2024/01/20 09:54:20;;;;;;;1.25;1.15;;;0.90;99.90;;;;;;5052441;28;20492;-84
2024/01/20 09:56:46;;;;;;;0.70;0.70;;;0.90;99.90;;;;;;5069396;28;20125;-84
2024/01/20 09:59:16;;;;;;;0.90;0.90;;;1.00;99.90;;;;;;5067888;28;20045;-84
2024/01/20 10:01:45;;;;;;;0.77;0.77;;;1.00;99.90;;;;;;5067821;28;20052;-85
2024/01/20 10:04:14;;;;;;;1.80;1.70;;;1.10;99.90;;;;;;5046726;28;20045;-85
2024/01/20 10:06:39;;;;;;;2.10;2.00;;;0.80;99.90;;;;;;5064459;28;20177;-85
2024/01/20 10:09:06;;;;;;;0.73;0.73;;;1.10;99.90;;;;;;5052406;28;20482;-86
2024/01/20 10:11:32;;;;;;;2.00;1.90;;;1.00;99.90;;;;;;5049378;28;20136;-85
2024/01/20 10:13:58;;;;;;;2.45;2.35;;;0.90;99.90;;;;;;5022152;28;20235;-85
2024/01/20 10:16:24;;;;;;;1.15;1.15;;;1.40;99.90;;;;;;5055516;28;20145;-84
2024/01/20 10:18:50;;;;;;;;;;;1.30;99.90;;;;;;5036228;28;20103;-85
2024/01/20 10:21:15;;;;;;;1.10;1.10;;;1.30;99.90;;;;;;5035889;28;19968;-85
2024/01/20 10:23:42;;;;;;;0.60;0.60;;;1.30;99.90;;;;;;5031496;28;20037;-84
2024/01/20 10:26:11;;;;;;;0.90;0.90;;;1.40;99.90;;;;;;5045374;28;20457;-86
2024/01/20 10:28:37;;;;;;;0.82;0.82;;;1.40;99.90;;;;;;5054988;28;20036;-84
2024/01/20 10:31:08;;;;;;;4.20;2.95;;;1.40;99.90;;;;;;5045585;28;20045;-86
2024/01/20 10:33:34;;;;;;;0.93;0.93;;;1.40;99.90;;;;;;5069659;28;20082;-84
2024/01/20 10:35:59;;;;;;;;;;;2.00;99.90;;;;;;5052640;28;20511;-85
2024/01/20 10:38:28;;;;;;;1.35;1.25;;;1.50;99.90;;;;;;5066273;28;19916;-83
2024/01/20 10:40:55;;;;;;;0.70;0.70;;;1.50;99.90;;;;;;5054624;28;20036;-86
2024/01/20 10:43:22;;;;;;;1.52;1.50;;;3.20;99.90;;;;;;5067604;28;20045;-85
2024/01/20 10:45:59;;;;;;;3.85;3.53;;;1.40;99.90;;;;;;5033248;28;20045;-85
2024/01/20 10:48:26;;;;;;;2.45;1.65;;;1.50;99.90;;;;;;5069883;28;20487;-85
2024/01/20 10:50:57;;;;;;;1.60;1.55;;;3.30;99.90;;;;;;5040133;28;20523;-85
2024/01/20 10:53:25;;;;;;;1.58;1.48;;;1.60;99.90;;;;;;5059296;28;20048;-84
2024/01/20 10:55:51;;;;;;;4.05;3.75;;;1.50;99.90;;;;;;5053525;28;20401;-83
2024/01/20 10:58:31;;;;;;;0.77;0.77;;;1.90;99.90;;;;;;5034494;28;20079;-85
2024/01/20 11:00:57;;;;;;;1.60;1.52;;;1.60;99.90;;;;;;5067461;28;20057;-85
2024/01/20 11:03:23;;;;;;;1.92;1.83;;;2.10;99.90;;;;;;5050097;28;20040;-84
2024/01/20 11:05:49;;;;;;;0.80;0.80;;;2.00;99.90;;;;;;5052848;28;20151;-84
2024/01/20 11:08:24;;;;;;;3.22;3.03;;;1.70;99.90;;;;;;5062279;28;20048;-86
2024/01/20 11:10:52;;;;;;;0.70;0.70;;;1.70;99.90;;;;;;5045461;28;21443;-83
2024/01/20 11:13:18;;;;;;;1.35;1.35;;;1.70;99.90;;;;;;5067081;28;20046;-85
2024/01/20 11:15:51;;;;;;;0.75;0.75;;;1.70;99.90;;;;;;5069606;28;20148;-84
2024/01/20 11:18:17;;;;;;;2.25;1.75;;;3.00;99.90;;;;;;5069893;28;20036;-85
2024/01/20 11:21:02;;;;;;;1.05;1.05;;;1.70;99.90;;;;;;5052745;28;20431;-84
2024/01/20 11:23:28;;;;;;;0.80;0.80;;;2.50;99.90;;;;;;5049253;28;20130;-84
2024/01/20 11:25:56;;;;;;;3.00;2.85;;;1.80;99.90;;;;;;5048159;28;20070;-84
2024/01/20 11:28:29;;;;;;;1.85;1.75;;;1.80;99.90;;;;;;5052967;28;20037;-84
2024/01/20 11:30:55;;;;;;;1.63;1.50;;;1.80;99.90;;;;;;5064037;28;20102;-85
2024/01/20 11:33:21;;;;;;;0.52;0.52;;;3.80;99.90;;;;;;5070033;28;20032;-84
2024/01/20 11:35:47;;;;;;;0.98;0.98;;;1.70;99.90;;;;;;5066293;28;20140;-85
2024/01/20 11:38:15;;;;;;;1.05;1.05;;;3.00;99.90;;;;;;5050689;28;20028;-85
2024/01/20 11:40:40;;;;;;;0.88;0.88;;;1.80;99.90;;;;;;5043217;28;20049;-84
2024/01/20 11:43:08;;;;;;;0.60;0.60;;;1.80;99.90;;;;;;5052545;28;20044;-85
2024/01/20 11:45:34;;;;;;;0.80;0.80;;;1.90;99.90;;;;;;5065771;28;20044;-85
2024/01/20 11:48:00;;;;;;;1.10;1.05;;;2.00;99.90;;;;;;5037718;28;20036;-84
2024/01/20 11:50:25;;;;;;;;;;;1.80;99.90;;;;;;5046682;28;20072;-86
2024/01/20 11:52:52;;;;;;;1.05;1.00;;;1.70;99.90;;;;;;5066465;28;19923;-85
2024/01/20 11:55:18;;;;;;;;;;;1.90;99.90;;;;;;5035077;28;20051;-85
2024/01/20 11:57:43;;;;;;;2.50;1.75;;;1.90;99.90;;;;;;5061524;28;20007;-83
2024/01/20 12:00:11;;;;;;;2.55;1.98;;;;;;;;;;5062424;28;20080;-83
2024/01/20 12:02:37;;;;;;;1.95;1.85;;;;;;;;;;5067102;28;20036;-84
2024/01/20 12:05:03;;;;;;;;;;;;;;;;;;5048241;28;20044;-85
2024/01/20 12:07:29;;;;;;;1.15;1.15;;;;;;;;;;5061929;28;19931;-84
2024/01/20 12:09:55;;;;;;;;;;;;;;;;;;5043928;28;20471;-84
2024/01/20 12:12:22;;;;;;;0.80;0.80;;;;;;;;;;5047708;28;19968;-84
2024/01/20 12:14:50;;;;;;;0.80;0.80;;;;;;;;;;5059283;28;20048;-84
2024/01/20 12:17:16;;;;;;;3.10;1.38;;;;;;;;;;5064801;28;20044;-84
2024/01/20 12:19:42;;;;;;;1.38;1.27;;;;;;;;;;5046682;28;20052;-84
2024/01/20 12:22:09;;;;;;;0.80;0.80;;;;;;;;;;5047480;28;20049;-85
2024/01/20 12:24:36;;;;;;;2.05;1.90;;;2.20;99.90;;;;;;5058043;28;20040;-84
2024/01/20 12:27:05;;;;;;;1.42;1.38;;;2.20;99.90;;;;;;5030528;28;20182;-84
2024/01/20 12:29:33;;;;;;;1.17;1.08;;;2.20;99.90;;;;;;5039061;28;20132;-83
2024/01/20 12:32:00;;;;;;;0.60;0.60;;;2.40;99.90;;;;;;5068336;28;20127;-86
2024/01/20 12:34:26;;;;;;;1.33;1.33;;;2.30;99.90;;;;;;5068472;28;20068;-84
2024/01/20 12:36:56;;;;;;;0.85;0.85;;;2.40;99.90;;;;;;5048109;28;20069;-86
2024/01/20 12:39:23;;;;;;;1.70;1.65;;;;;;;;;;5062104;28;20080;-83
2024/01/20 12:41:50;;;;;;;0.82;0.82;;;2.50;99.90;;;;;;5065849;28;20040;-82
2024/01/20 12:44:17;;;;;;;1.33;1.13;;;2.80;99.90;;;;;;5053256;28;20040;-82
2024/01/20 12:46:43;;;;;;;0.70;0.70;;;2.60;99.90;;;;;;5052746;28;20120;-83
2024/01/20 12:49:15;;;;;;;0.90;0.90;;;2.60;99.90;;;;;;5044089;28;20061;-83
2024/01/20 12:51:41;;;;;;;1.60;1.25;;;2.40;99.90;;;;;;5059233;28;20131;-83
2024/01/20 12:54:10;;;;;;;2.67;1.80;;;2.80;99.90;;;;;;5027018;28;20040;-83
2024/01/20 12:56:36;;;;;;;0.80;0.80;;;2.80;99.90;;;;;;5048047;28;20036;-84